Latest Weather Observations for Victoria River Downs

IDD60801

Issued at 8:01 pm CST Sunday 24 July 2016 (issued every 30 minutes, with the page automatically refreshed every 10 minutes)

About weather observations | Map of weather stations | Latest weather observations for NT | Other Formats
Station Details ID: 014825 Name: VICTORIA RIVER DOWNS Lat: -16.40 Lon: 131.01 Height: 88.5 m
Data from the previous 72 hours. | See also: Recent months at Victoria River Downs
Date/Time
CST
Temp
°C
App
Temp
°C
Dew
Point
°C
Rel
Hum
%
Delta-T
°C
Wind Press
QNH
hPa
Press
MSL
hPa
Rain since
9am
mm
Dir  Spd
km/h
Gust
km/h
Spd
kts
Gust
kts
24/08:00pm 27.6 25.9 8.5 30 10.4 SE 7 9 4 5 1012.6 - 0.0
24/07:30pm 28.5 26.6 9.2 30 10.7 SSE 9 11 5 6 1012.2 - 0.0
24/07:00pm 29.8 28.2 8.8 27 11.7 SE 7 9 4 5 1011.8 - 0.0
24/06:30pm 31.8 29.8 8.7 24 12.9 ESE 9 15 5 8 1011.3 - 0.0
24/06:00pm 33.5 30.8 7.5 20 14.4 E 11 15 6 8 1011.0 1010.7 0.0
24/05:30pm 34.1 - 8.7 21 14.4 - - - - - 1010.7 - 0.0
24/05:00pm 34.2 30.9 8.0 20 14.7 E 15 22 8 12 1010.6 - 0.0
24/04:30pm 34.3 31.4 8.1 20 14.7 ESE 13 19 7 10 1010.5 - 0.0
24/04:00pm 34.6 32.3 9.1 21 14.6 SE 11 15 6 8 1010.5 - 0.0
24/03:30pm 34.3 31.0 9.5 22 14.2 ESE 17 30 9 16 1010.8 - 0.0
24/03:00pm 34.6 32.3 9.1 21 14.6 SE 11 20 6 11 1011.1 1010.9 0.0
24/02:30pm 33.8 31.1 9.1 22 14.1 ESE 13 24 7 13 1011.7 - 0.0
24/02:00pm 33.5 31.1 10.2 24 13.5 E 13 20 7 11 1012.3 - 0.0
24/01:30pm 33.4 30.6 10.1 24 13.4 ESE 15 24 8 13 1013.0 - 0.0
24/01:00pm 33.5 31.7 10.8 25 13.2 E 11 17 6 9 1013.6 - 0.0
24/12:30pm 31.6 28.7 9.8 26 12.4 E 15 20 8 11 1014.3 - 0.0
24/12:00pm 30.9 28.9 10.3 28 11.8 E 11 15 6 8 1014.8 1014.6 0.0
24/11:30am 29.9 27.7 9.4 28 11.5 E 11 19 6 10 1015.3 - 0.0
24/11:00am 29.5 27.6 9.1 28 11.4 NNE 9 15 5 8 1015.6 - 0.0
24/10:30am 28.3 25.4 8.1 28 11.0 ENE 13 17 7 9 1015.8 - 0.0
24/10:00am 27.7 25.0 9.0 31 10.3 ENE 13 17 7 9 1016.0 - 0.0
24/09:30am 26.7 24.6 8.2 31 10.0 ESE 9 13 5 7 1016.0 - 0.0
24/09:27am 26.4 23.9 8.4 32 9.8 E 11 17 6 9 1015.9 - 0.0
24/09:00am 24.5 23.2 9.3 38 8.3 SSE 6 11 3 6 1015.8 1015.6 0.0
24/08:30am 21.8 21.5 8.7 43 7.0 CALM 0 4 0 2 1015.6 - 0.0
24/08:00am 18.6 17.3 9.9 57 4.6 WSW 7 9 4 5 1015.4 - 0.0
24/07:30am 18.5 17.2 9.3 55 4.8 SE 6 9 3 5 1014.9 - 0.0
24/07:00am 18.1 16.4 10.0 59 4.3 ESE 9 11 5 6 1014.3 - 0.0
24/06:30am 16.3 15.0 9.9 66 3.4 SSE 7 9 4 5 1014.1 - 0.0
24/06:00am 16.9 15.0 9.1 60 4.1 ENE 9 9 5 5 1013.7 1013.3 0.0
24/05:30am 16.8 15.8 9.0 60 4.0 ESE 4 11 2 6 1013.5 - 0.0
24/05:00am 17.2 16.8 9.9 62 3.9 N 2 9 1 5 1013.1 - 0.0
24/04:30am 17.0 15.4 8.7 58 4.3 WNW 7 9 4 5 1012.6 - 0.0
24/04:00am 17.2 15.6 8.9 58 4.3 NW 7 9 4 5 1012.5 - 0.0
24/03:30am 17.8 16.3 9.2 57 4.5 W 7 7 4 4 1012.4 - 0.0
24/03:00am 17.9 17.6 8.7 55 4.8 CALM 0 0 0 0 1012.5 1012.1 0.0
24/02:30am 18.2 18.2 9.8 58 4.5 CALM 0 0 0 0 1012.5 - 0.0
24/02:00am 18.6 18.6 9.9 57 4.6 CALM 0 0 0 0 1012.6 - 0.0
24/01:30am 18.8 18.7 9.3 54 5.0 CALM 0 0 0 0 1012.4 - 0.0
24/01:00am 18.8 18.9 10.1 57 4.7 CALM 0 0 0 0 1012.6 - 0.0
24/12:30am 19.3 18.0 10.0 55 5.0 SE 7 11 4 6 1012.5 - 0.0
24/12:00am 19.6 18.8 9.5 52 5.4 SSE 4 9 2 5 1012.3 1012.0 0.0
 
Date/Time
CST
Temp
°C
App
Temp
°C
Dew
Point
°C
Rel
Hum
%
Delta-T
°C
Wind Press
QNH
hPa
Press
MSL
hPa
Rain since
9am
mm
Dir  Spd
km/h
Gust
km/h
Spd
kts
Gust
kts
23/11:30pm 19.8 19.8 9.7 52 5.4 CALM 0 0 0 0 1012.4 - 0.0
23/11:00pm 20.1 19.7 9.9 52 5.5 S 2 6 1 3 1012.2 - 0.0
23/10:30pm 20.8 20.6 10.6 52 5.6 S 2 6 1 3 1012.2 - 0.0
23/10:00pm 21.7 21.3 11.1 51 5.9 SSE 4 9 2 5 1012.0 - 0.0
23/09:30pm 22.6 22.8 10.4 46 6.7 CALM 0 0 0 0 1011.8 - 0.0
23/09:00pm 23.8 22.7 9.8 41 7.7 ESE 6 7 3 4 1011.6 1011.2 0.0
23/08:30pm 26.4 25.4 10.9 38 8.8 SE 7 9 4 5 1011.3 - 0.0
23/08:00pm 26.9 25.5 11.0 37 9.0 SE 9 11 5 6 1010.9 - 0.0
23/07:30pm 27.5 25.9 10.2 34 9.7 SE 9 11 5 6 1010.6 - 0.0
23/07:00pm 29.4 28.0 9.5 29 11.2 SE 7 7 4 4 1010.5 - 0.0
23/06:30pm 31.6 30.4 10.3 27 12.2 SE 7 9 4 5 1010.2 - 0.0
23/06:00pm 33.4 31.6 10.7 25 13.2 ESE 11 11 6 6 1010.0 1009.8 0.0
23/05:30pm 33.9 32.4 10.5 24 13.6 E 9 13 5 7 1010.0 - 0.0
23/05:00pm 34.2 31.8 10.1 23 14.0 E 13 20 7 11 1009.9 - 0.0
23/04:30pm 34.2 32.9 11.4 25 13.5 SSE 9 13 5 7 1009.8 - 0.0
23/04:00pm 34.1 31.7 11.3 25 13.4 ESE 15 37 8 20 1010.1 - 0.0
23/03:30pm 34.1 32.0 11.3 25 13.4 ESE 13 19 7 10 1010.4 - 0.0
23/03:00pm 33.7 32.1 11.5 26 13.1 ESE 11 19 6 10 1010.8 1010.8 0.0
23/02:30pm 33.9 32.7 11.7 26 13.2 ESE 9 20 5 11 1011.3 - 0.0
23/02:00pm 33.6 32.1 12.0 27 12.8 NE 11 19 6 10 1012.0 - 0.0
23/01:30pm 33.5 32.2 12.5 28 12.6 E 11 20 6 11 1012.4 - 0.0
23/01:00pm 33.0 31.5 13.1 30 12.0 ENE 13 22 7 12 1013.0 - 0.0
23/12:30pm 32.2 30.5 12.4 30 11.8 ESE 13 20 7 11 1013.5 - 0.0
23/12:00pm 32.6 29.5 12.3 29 12.1 E 20 30 11 16 1014.0 1013.8 0.0
23/11:30am 32.2 30.6 11.4 28 12.2 NNE 11 13 6 7 1014.5 - 0.0
23/11:00am 30.5 28.3 9.4 27 11.9 ENE 11 15 6 8 1015.0 - 0.0
23/10:30am 29.2 27.7 9.3 29 11.1 E 7 9 4 5 1015.3 - 0.0
23/10:00am 27.4 25.9 9.3 32 10.0 ESE 7 11 4 6 1015.4 - 0.0
23/09:30am 26.6 25.2 9.0 33 9.7 SSE 6 9 3 5 1015.6 - 0.0
23/09:21am 24.8 23.6 9.5 38 8.4 SW 6 9 3 5 1015.5 - 0.0
23/09:00am 22.6 21.0 8.7 41 7.4 WSW 7 9 4 5 1015.3 1015.0 0.0
23/08:30am 20.3 18.6 8.3 46 6.3 WSW 7 9 4 5 1015.2 - 0.0
23/08:00am 17.3 15.7 8.7 57 4.4 WSW 7 9 4 5 1014.8 - 0.0
23/07:30am 15.6 14.1 8.4 62 3.7 WNW 6 9 3 5 1014.5 - 0.0
23/07:00am 15.0 14.4 7.3 60 3.8 CALM 0 7 0 4 1014.1 - 0.0
23/06:30am 15.8 14.9 7.6 58 4.1 NNE 2 6 1 3 1013.9 - 0.0
23/06:00am 15.8 14.5 7.6 58 4.1 WNW 4 15 2 8 1013.5 1013.3 0.0
23/05:30am 16.1 14.3 7.1 55 4.5 NW 6 7 3 4 1013.2 - 0.0
23/05:00am 16.8 14.8 6.9 52 4.9 WNW 7 9 4 5 1013.0 - 0.0
23/04:30am 17.1 15.2 7.5 53 4.8 NW 7 7 4 4 1012.7 - 0.0
23/04:00am 17.1 15.7 7.2 52 5.0 SSW 4 9 2 5 1012.5 - 0.0
23/03:30am 17.2 15.4 7.0 51 5.1 WSW 6 9 3 5 1012.4 - 0.0
23/03:00am 17.2 15.4 7.3 52 5.0 WSW 6 9 3 5 1012.4 1012.1 0.0
23/02:30am 17.3 16.4 7.9 54 4.8 SW 2 9 1 5 1012.7 - 0.0
23/02:00am 18.2 17.0 8.2 52 5.2 WNW 4 7 2 4 1012.7 - 0.0
23/01:30am 17.7 17.2 7.7 52 5.1 CALM 0 0 0 0 1012.7 - 0.0
23/01:00am 18.1 16.2 7.5 50 5.4 S 7 11 4 6 1012.6 - 0.0
23/12:30am 18.8 16.9 7.6 48 5.7 SSE 7 9 4 5 1012.7 - 0.0
23/12:00am 18.6 17.6 7.4 48 5.7 S 2 9 1 5 1012.7 1012.4 0.0
 
Date/Time
CST
Temp
°C
App
Temp
°C
Dew
Point
°C
Rel
Hum
%
Delta-T
°C
Wind Press
QNH
hPa
Press
MSL
hPa
Rain since
9am
mm
Dir  Spd
km/h
Gust
km/h
Spd
kts
Gust
kts
22/11:30pm 19.1 17.3 7.8 48 5.8 S 7 9 4 5 1012.9 - 0.0
22/11:00pm 19.0 18.3 7.1 46 6.0 CALM 0 0 0 0 1013.0 - 0.0
22/10:30pm 19.6 18.2 7.4 45 6.2 S 4 9 2 5 1013.0 - 0.0
22/10:00pm 20.4 18.6 7.1 42 6.8 S 6 7 3 4 1012.9 - 0.0
22/09:30pm 21.1 19.1 7.0 40 7.2 S 7 9 4 5 1012.8 - 0.0
22/09:00pm 21.8 20.0 7.2 39 7.5 S 6 7 3 4 1012.5 1012.2 0.0
22/08:30pm 23.2 21.6 6.5 34 8.6 SSE 4 6 2 3 1012.2 - 0.0
22/08:00pm 25.5 23.6 7.6 32 9.5 SSE 7 9 4 5 1011.8 - 0.0
22/07:30pm 26.4 24.6 7.9 31 9.9 S 7 9 4 5 1011.2 - 0.0
22/07:00pm 28.1 26.0 6.8 26 11.3 SSE 7 9 4 5 1011.0 - 0.0
22/06:30pm 30.7 28.6 6.6 22 13.0 SSE 7 11 4 6 1010.8 - 0.0
22/06:00pm 32.3 29.0 6.5 20 14.0 SE 13 17 7 9 1010.8 1010.6 0.0
22/05:30pm 33.1 29.8 6.4 19 14.5 SSE 13 22 7 12 1010.8 - 0.0
22/05:00pm 33.5 31.0 6.7 19 14.7 E 9 17 5 9 1010.9 - 0.0
22/04:30pm 33.5 30.5 5.9 18 14.9 S 11 20 6 11 1010.9 - 0.0
22/04:00pm 33.7 30.5 5.3 17 15.2 S 11 19 6 10 1011.0 - 0.0
22/03:30pm 33.2 29.9 6.5 19 14.5 SE 13 22 7 12 1011.2 - 0.0
22/03:00pm 32.9 29.0 7.0 20 14.2 SSE 17 20 9 11 1011.6 1011.4 0.0
22/02:30pm 32.6 29.4 6.7 20 14.1 SE 13 24 7 13 1012.0 - 0.0
22/02:00pm 32.4 29.5 6.6 20 14.0 S 11 19 6 10 1012.7 - 0.0
22/01:30pm 32.3 29.6 7.2 21 13.8 S 11 24 6 13 1013.3 - 0.0
22/01:00pm 31.5 28.2 6.5 21 13.5 SE 13 19 7 10 1013.9 - 0.0
22/12:30pm 30.9 27.7 6.7 22 13.1 SSE 13 26 7 14 1014.4 - 0.0
22/12:00pm 30.3 27.1 6.9 23 12.6 SSE 13 26 7 14 1015.0 1014.8 0.0
22/11:30am 29.7 27.2 8.2 26 11.8 SSE 11 17 6 9 1015.6 - 0.0
22/11:00am 27.9 25.0 6.6 26 11.3 SE 11 19 6 10 1016.1 - 0.0
22/10:30am 26.6 24.1 8.1 31 10.0 ESE 11 19 6 10 1016.5 - 0.0
22/10:00am 25.7 23.5 7.8 32 9.6 SE 9 13 5 7 1016.7 - 0.0
22/09:30am 23.9 22.6 7.5 35 8.6 SW 4 7 2 4 1016.6 - 0.0
22/09:23am 22.5 21.2 7.5 38 7.8 SW 4 7 2 4 1016.6 - 0.0
22/09:00am 20.4 19.0 7.4 43 6.7 WSW 4 6 2 3 1016.5 1016.2 0.0
22/08:30am 17.9 16.1 7.0 49 5.5 WNW 6 7 3 4 1016.2 - 0.0
22/08:00am 14.3 12.8 6.9 61 3.6 WSW 4 7 2 4 1015.9 - 0.0
22/07:30am 12.7 10.4 5.6 62 3.3 W 7 9 4 5 1015.4 - 0.0
22/07:00am 13.1 11.7 5.5 60 3.6 W 2 9 1 5 1015.2 - 0.0
22/06:30am 13.5 11.4 6.8 64 3.2 WSW 7 9 4 5 1015.0 - 0.0
22/06:00am 13.2 11.4 5.6 60 3.6 SW 4 9 2 5 1014.8 1014.4 0.0
22/05:30am 13.4 12.4 5.6 59 3.7 CALM 0 0 0 0 1014.7 - 0.0
22/05:00am 13.9 11.6 5.5 57 4.0 NNW 7 9 4 5 1014.5 - 0.0
22/04:30am 14.1 11.9 6.0 58 3.9 W 7 9 4 5 1014.4 - 0.0
22/04:00am 14.2 12.9 5.8 57 4.0 SW 2 9 1 5 1014.2 - 0.0
22/03:30am 14.5 12.5 6.1 57 4.0 NW 6 9 3 5 1014.2 - 0.0
22/03:00am 14.3 11.9 5.4 55 4.2 WSW 7 9 4 5 1013.9 1013.6 0.0
22/02:30am 14.8 12.5 5.9 55 4.3 W 7 9 4 5 1013.8 - 0.0
22/02:00am 15.1 12.7 5.3 52 4.7 W 7 9 4 5 1014.0 - 0.0
22/01:30am 14.9 12.6 5.7 54 4.4 W 7 9 4 5 1014.0 - 0.0
22/01:00am 15.3 13.3 6.1 54 4.5 NW 6 7 3 4 1014.0 - 0.0
22/12:30am 15.5 14.0 5.1 50 4.9 WSW 2 7 1 4 1014.0 - 0.0
22/12:00am 16.3 14.5 5.6 49 5.2 W 4 7 2 4 1014.0 1013.7 0.0
 
Date/Time
CST
Temp
°C
App
Temp
°C
Dew
Point
°C
Rel
Hum
%
Delta-T
°C
Wind Press
QNH
hPa
Press
MSL
hPa
Rain since
9am
mm
Dir  Spd
km/h
Gust
km/h
Spd
kts
Gust
kts
21/11:30pm 17.3 15.0 5.9 47 5.6 WNW 7 7 4 4 1014.0 - 0.0
21/11:00pm 17.1 14.8 5.7 47 5.5 W 7 9 4 5 1013.9 - 0.0
21/10:30pm 16.9 14.9 6.1 49 5.3 WSW 6 7 3 4 1013.8 - 0.0
21/10:00pm 18.5 17.6 6.0 44 6.2 CALM 0 0 0 0 1013.6 - 0.0
21/09:30pm 18.4 17.5 5.9 44 6.2 CALM 0 0 0 0 1013.5 - 0.0
21/09:00pm 19.7 17.4 5.0 38 7.2 S 6 9 3 5 1013.2 1012.9 0.0
21/08:30pm 20.6 18.4 5.4 37 7.5 SSE 6 7 3 4 1013.0 - 0.0

Other Formats:

Comma delimited format used in spreadsheet applications
http://www.bom.gov.au/fwo/IDD60801/IDD60801.94232.axf

JavaScript Object Notation format (JSON) in row-major order
http://www.bom.gov.au/fwo/IDD60801/IDD60801.94232.json